Frej — SBPT — position and weather

sailwx.info

Track history (hours):
 
Tides and Currents Weather Stations Pressure Air Temp Water Temp Dewpoint Dewpoint Depression Visibility Wind Speed Wind Dir Waves Ship Positions

Frej

Last reported at 2015-Mar-28 09:00 UTC. Time now 2015-Mar-28 11:08 UTC.
Position N 65°24' E 024°12'.

Length 108 m; draft 7 m.

Type: Other ship. MMSI: 265068000.

Wind from 170 at 14 knots

Barometer 1004.3 mb
Air temperature -0.1 ° C
Water temperature 0.2 ° C

Date/timePositionNaut miles runAvg speedWind from/ knotsBaromVisibWave heightAir tempDewpointWater temp
2015-Mar-28 09:00N 65°24' E 024°12'6 3.2 170 / 141004.3 -0.1 0.2
2015-Mar-28 07:00N 65°30' E 024°18'10 9.6 150 / 141006.1 -0.1 0.2
2015-Mar-28 06:00N 65°24' E 024°00'7 6.5 170 / 161006.4 -0.0 0.2
2015-Mar-28 05:00N 65°18' E 023°54'8 7.8 170 / 191006.1 0.1 0.2
2015-Mar-28 04:00N 65°24' E 024°06'0 0.0 170 / 191007.0 -0.0 0.2
2015-Mar-28 03:00N 65°24' E 024°06'0 0.0 150 / 141007.4 -0.1 0.2
2015-Mar-28 01:00N 65°24' E 024°06'25 6.3 160 / 171008.6 -0.4 0.2
2015-Mar-27 21:00N 65°06' E 024°48'3 2.5 150 / 191011.8 -1.6 0.2
2015-Mar-27 20:00N 65°06' E 024°54'0 0.0 160 / 231012.6 -0.7 0.2
2015-Mar-27 19:00N 65°06' E 024°54'2311.7 150 / 271012.2 0.7 0.2
2015-Mar-27 17:00N 65°12' E 024°00'12 6.0 140 / 231011.4 1.3 0.2
2015-Mar-27 15:00N 65°24' E 024°00'0 0.0 120 / 231013.6 1.1 0.3
2015-Mar-27 14:00N 65°24' E 024°00'0 0.0 120 / 161014.9 1.4 0.4
2015-Mar-27 13:00N 65°24' E 024°00'6 3.0 110 / 161015.8 0.8 0.4
2015-Mar-27 11:00N 65°18' E 024°00'0 0.0 150 / 121017.8 0.6 0.4
2015-Mar-27 10:00N 65°18' E 024°00'6 6.0 150 / 141018.0 0.1 0.3
2015-Mar-27 09:00N 65°24' E 024°00'5 2.5 150 / 191018.6 -1.7 0.2
2015-Mar-27 07:00N 65°24' E 024°12'2 2.5 140 / 171019.9 -4.4 0.2
2015-Mar-27 06:00N 65°24' E 024°06'8 7.8 120 / 251019.8 -5.2 0.2
2015-Mar-27 05:00N 65°18' E 023°54'7 6.5 120 / 231020.1 -6.2 0.2
2015-Mar-27 04:00N 65°24' E 024°00'0 0.0 120 / 271021.0 -5.8 0.3
2015-Mar-27 03:00N 65°24' E 024°00'19 0.6 120 / 271021.7 -6.0 0.3
2015-Mar-25 20:00N 65°12' E 024°36'5 5.0 260 / 191023.6 -2.4 0.2
2015-Mar-25 19:00N 65°12' E 024°24'14 3.5 240 / 231022.9 -1.9 0.2
2015-Mar-25 15:00N 65°00' E 024°06'19 6.2 240 / 211023.6 -0.7 0.2
2015-Mar-25 12:00N 65°06' E 024°48'1010.1 250 / 231023.0 -1.9 0.2
2015-Mar-25 11:00N 65°06' E 025°12'1313.0 240 / 211023.1 -2.2 0.6
2015-Mar-25 10:00N 65°18' E 025°00'8 7.8 200 / 191022.7 -4.8 0.5
2015-Mar-25 09:00N 65°24' E 024°48'16 7.8 180 / 191022.0 -6.0 0.4
2015-Mar-25 07:00N 65°36' E 024°24'8 7.8 150 / 161020.9 -9.1 0.3
2015-Mar-25 06:00N 65°42' E 024°12'6 6.5 210 / 61021.5 -8.8 0.4
2015-Mar-25 05:00N 65°36' E 024°18'12 6.1 200 / 61021.4 -8.0 0.4
2015-Mar-25 03:00N 65°24' E 024°12'2110.4 330 / 41020.7 -4.3 0.2
2015-Mar-25 01:00N 65°18' E 023°24'13 0.8 290 / 41020.3 -4.9 0.2
2015-Mar-24 10:00N 65°18' E 023°54'14 0.5 010 / 29998.6 -5.2 0.2
2015-Mar-23 06:00N 65°12' E 024°24'7 6.5 240 / 14992.3 0.6 0.2
2015-Mar-23 05:00N 65°06' E 024°18'10 4.8 230 / 19992.4 0.4 0.3
2015-Mar-23 03:00N 65°12' E 024°36'   190 / 19993.7 -0.0 0.2
2015-Mar-19 07:00N 65°06' E 024°48'1211.7 210 / 231016.6 1.8 0.2
2015-Mar-19 06:00N 65°12' E 024°24'0 0.0 220 / 191018.2 0.9 0.4
2015-Mar-19 04:00N 65°12' E 024°24'0 0.0 230 / 231019.8 0.7 0.3
2015-Mar-19 03:00N 65°12' E 024°24'0 0.0 240 / 211020.9 0.6 0.3
2015-Mar-19 01:00N 65°12' E 024°24'5 1.0 240 / 231022.0 0.5 0.3
2015-Mar-18 20:00N 65°12' E 024°36'10 9.7 230 / 231025.7 1.0 0.2
2015-Mar-18 19:00N 65°06' E 024°54'14 7.0 190 / 141026.6 3.3 0.2
2015-Mar-18 17:00N 65°12' E 024°24'0 0.0 200 / 141029.1 1.3 0.4
2015-Mar-18 15:00N 65°12' E 024°24'0 0.0 200 / 101031.5 0.5 0.6
2015-Mar-18 14:00N 65°12' E 024°24'0 0.0 210 / 121032.8 -0.2 0.7
2015-Mar-18 13:00N 65°12' E 024°24'3 1.3 210 / 171033.9 -0.6 0.6
2015-Mar-18 11:00N 65°12' E 024°18'5 5.0 200 / 191034.9 -0.7 0.6
2015-Mar-18 10:00N 65°12' E 024°30'1211.7 230 / 211035.1 -0.9 0.3
2015-Mar-18 09:00N 65°06' E 024°54'   240 / 271035.2 0.4 0.3
Track history (hours):
 
Tides and Currents Weather Stations Pressure Air Temp Water Temp Dewpoint Dewpoint Depression Visibility Wind Speed Wind Dir Waves Ship Positions

Frej

Last reported at 2015-Mar-28 09:00 UTC. Time now 2015-Mar-28 11:08 UTC.
Position N 65°24' E 024°12'.

Length 108 m; draft 7 m.

Type: Other ship. MMSI: 265068000.

Wind from 170 at 14 knots

Barometer 1004.3 mb
Air temperature -0.1 ° C
Water temperature 0.2 ° C

Date/timePositionNaut miles runAvg speedWind from/ knotsBaromVisibWave heightAir tempDewpointWater temp
2015-Mar-28 09:00N 65°24' E 024°12'6 3.2 170 / 141004.3 -0.1 0.2
2015-Mar-28 07:00N 65°30' E 024°18'10 9.6 150 / 141006.1 -0.1 0.2
2015-Mar-28 06:00N 65°24' E 024°00'7 6.5 170 / 161006.4 -0.0 0.2
2015-Mar-28 05:00N 65°18' E 023°54'8 7.8 170 / 191006.1 0.1 0.2
2015-Mar-28 04:00N 65°24' E 024°06'0 0.0 170 / 191007.0 -0.0 0.2
2015-Mar-28 03:00N 65°24' E 024°06'0 0.0 150 / 141007.4 -0.1 0.2
2015-Mar-28 01:00N 65°24' E 024°06'25 6.3 160 / 171008.6 -0.4 0.2
2015-Mar-27 21:00N 65°06' E 024°48'3 2.5 150 / 191011.8 -1.6 0.2
2015-Mar-27 20:00N 65°06' E 024°54'0 0.0 160 / 231012.6 -0.7 0.2
2015-Mar-27 19:00N 65°06' E 024°54'2311.7 150 / 271012.2 0.7 0.2
2015-Mar-27 17:00N 65°12' E 024°00'12 6.0 140 / 231011.4 1.3 0.2
2015-Mar-27 15:00N 65°24' E 024°00'0 0.0 120 / 231013.6 1.1 0.3
2015-Mar-27 14:00N 65°24' E 024°00'0 0.0 120 / 161014.9 1.4 0.4
2015-Mar-27 13:00N 65°24' E 024°00'6 3.0 110 / 161015.8 0.8 0.4
2015-Mar-27 11:00N 65°18' E 024°00'0 0.0 150 / 121017.8 0.6 0.4
2015-Mar-27 10:00N 65°18' E 024°00'6 6.0 150 / 141018.0 0.1 0.3
2015-Mar-27 09:00N 65°24' E 024°00'5 2.5 150 / 191018.6 -1.7 0.2
2015-Mar-27 07:00N 65°24' E 024°12'2 2.5 140 / 171019.9 -4.4 0.2
2015-Mar-27 06:00N 65°24' E 024°06'8 7.8 120 / 251019.8 -5.2 0.2
2015-Mar-27 05:00N 65°18' E 023°54'7 6.5 120 / 231020.1 -6.2 0.2
2015-Mar-27 04:00N 65°24' E 024°00'0 0.0 120 / 271021.0 -5.8 0.3
2015-Mar-27 03:00N 65°24' E 024°00'19 0.6 120 / 271021.7 -6.0 0.3
2015-Mar-25 20:00N 65°12' E 024°36'5 5.0 260 / 191023.6 -2.4 0.2
2015-Mar-25 19:00N 65°12' E 024°24'14 3.5 240 / 231022.9 -1.9 0.2
2015-Mar-25 15:00N 65°00' E 024°06'19 6.2 240 / 211023.6 -0.7 0.2
2015-Mar-25 12:00N 65°06' E 024°48'1010.1 250 / 231023.0 -1.9 0.2
2015-Mar-25 11:00N 65°06' E 025°12'1313.0 240 / 211023.1 -2.2 0.6
2015-Mar-25 10:00N 65°18' E 025°00'8 7.8 200 / 191022.7 -4.8 0.5
2015-Mar-25 09:00N 65°24' E 024°48'16 7.8 180 / 191022.0 -6.0 0.4
2015-Mar-25 07:00N 65°36' E 024°24'8 7.8 150 / 161020.9 -9.1 0.3
2015-Mar-25 06:00N 65°42' E 024°12'6 6.5 210 / 61021.5 -8.8 0.4
2015-Mar-25 05:00N 65°36' E 024°18'12 6.1 200 / 61021.4 -8.0 0.4
2015-Mar-25 03:00N 65°24' E 024°12'2110.4 330 / 41020.7 -4.3 0.2
2015-Mar-25 01:00N 65°18' E 023°24'13 0.8 290 / 41020.3 -4.9 0.2
2015-Mar-24 10:00N 65°18' E 023°54'14 0.5 010 / 29998.6 -5.2 0.2
2015-Mar-23 06:00N 65°12' E 024°24'7 6.5 240 / 14992.3 0.6 0.2
2015-Mar-23 05:00N 65°06' E 024°18'10 4.8 230 / 19992.4 0.4 0.3
2015-Mar-23 03:00N 65°12' E 024°36'   190 / 19993.7 -0.0 0.2
2015-Mar-19 07:00N 65°06' E 024°48'1211.7 210 / 231016.6 1.8 0.2
2015-Mar-19 06:00N 65°12' E 024°24'0 0.0 220 / 191018.2 0.9 0.4
2015-Mar-19 04:00N 65°12' E 024°24'0 0.0 230 / 231019.8 0.7 0.3
2015-Mar-19 03:00N 65°12' E 024°24'0 0.0 240 / 211020.9 0.6 0.3
2015-Mar-19 01:00N 65°12' E 024°24'5 1.0 240 / 231022.0 0.5 0.3
2015-Mar-18 20:00N 65°12' E 024°36'10 9.7 230 / 231025.7 1.0 0.2
2015-Mar-18 19:00N 65°06' E 024°54'14 7.0 190 / 141026.6 3.3 0.2
2015-Mar-18 17:00N 65°12' E 024°24'0 0.0 200 / 141029.1 1.3 0.4
2015-Mar-18 15:00N 65°12' E 024°24'0 0.0 200 / 101031.5 0.5 0.6
2015-Mar-18 14:00N 65°12' E 024°24'0 0.0 210 / 121032.8 -0.2 0.7
2015-Mar-18 13:00N 65°12' E 024°24'3 1.3 210 / 171033.9 -0.6 0.6
2015-Mar-18 11:00N 65°12' E 024°18'5 5.0 200 / 191034.9 -0.7 0.6
2015-Mar-18 10:00N 65°12' E 024°30'1211.7 230 / 211035.1 -0.9 0.3
2015-Mar-18 09:00N 65°06' E 024°54'   240 / 271035.2 0.4 0.3

Dump ship's entire track history